Time;durP1;ratioP1;P1;durP2;ratioP2;P2;SDS_P1;SDS_P2;PMS_P1;PMS_P2;Temp;Humidity;BMP_temperature;BMP_pressure;BME280_temperature;BME280_humidity;BME280_pressure;Samples;Min_cycle;Max_cycle;Signal;HPM_P1;HPM_P2
2024/04/10 00:02:24;;;;;;;6.78;3.72;;;25.10;99.90;;;;;;5320166;22;20008;-57
2024/04/10 00:04:51;;;;;;;5.68;3.60;;;25.10;99.90;;;;;;5319667;26;20013;-56
2024/04/10 00:07:17;;;;;;;7.50;3.75;;;25.10;99.90;;;;;;5327923;26;20321;-54
2024/04/10 00:09:43;;;;;;;5.88;3.35;;;25.10;99.90;;;;;;5313644;26;20438;-54
2024/04/10 00:12:09;;;;;;;5.68;3.78;;;25.10;99.90;;;;;;5344264;26;20040;-55
2024/04/10 00:14:39;;;;;;;5.68;3.10;;;25.10;99.90;;;;;;5341539;26;20006;-54
2024/04/10 00:17:05;;;;;;;5.47;3.60;;;25.10;99.90;;;;;;5343540;26;20352;-55
2024/04/10 00:19:30;;;;;;;5.13;3.25;;;25.10;99.90;;;;;;5334947;26;20013;-56
2024/04/10 00:21:56;;;;;;;6.55;3.83;;;25.10;99.90;;;;;;5311546;26;20013;-57
2024/04/10 00:24:22;;;;;;;5.32;3.63;;;25.10;99.90;;;;;;5311657;27;20442;-57
2024/04/10 00:26:52;;;;;;;7.05;3.33;;;25.10;99.90;;;;;;5311626;26;20121;-56
2024/04/10 00:29:18;;;;;;;7.28;3.60;;;25.00;99.90;;;;;;5311046;26;19997;-56
2024/04/10 00:31:50;;;;;;;4.85;2.78;;;25.00;99.90;;;;;;5314936;26;20005;-56
2024/04/10 00:34:17;;;;;;;6.13;3.10;;;25.00;99.90;;;;;;5314082;26;20017;-56
2024/04/10 00:36:43;;;;;;;6.67;3.10;;;25.00;99.90;;;;;;5275902;27;20002;-56
2024/04/10 00:39:10;;;;;;;5.22;3.28;;;25.00;99.90;;;;;;5277638;27;20233;-57
2024/04/10 00:41:35;;;;;;;6.72;3.13;;;25.00;99.90;;;;;;5311001;27;20002;-56
2024/04/10 00:44:01;;;;;;;6.20;3.55;;;25.00;99.90;;;;;;5311046;26;20013;-55
2024/04/10 00:46:27;;;;;;;5.63;3.22;;;25.00;99.90;;;;;;5310966;26;20029;-57
2024/04/10 00:48:55;;;;;;;6.82;2.90;;;25.00;99.90;;;;;;5310568;26;20001;-57
2024/04/10 00:51:22;;;;;;;4.95;2.53;;;25.00;99.90;;;;;;5311294;27;20013;-55
2024/04/10 00:53:49;;;;;;;5.97;3.70;;;25.00;99.90;;;;;;5310703;26;20018;-57
2024/04/10 00:56:16;;;;;;;5.57;2.70;;;25.00;99.90;;;;;;5316019;26;20011;-55
2024/04/10 00:58:42;;;;;;;7.75;3.10;;;25.00;99.90;;;;;;5314067;26;20365;-56
2024/04/10 01:01:10;;;;;;;7.68;3.20;;;25.00;99.90;;;;;;5321675;21;20019;-48
2024/04/10 01:03:37;;;;;;;5.13;3.15;;;25.00;99.90;;;;;;5310788;26;19998;-49
2024/04/10 01:06:08;;;;;;;4.80;3.00;;;24.90;99.90;;;;;;5310771;27;19998;-51
2024/04/10 01:08:36;;;;;;;5.93;2.90;;;25.00;99.90;;;;;;5310872;26;20025;-50
2024/04/10 01:11:04;;;;;;;4.75;3.05;;;25.00;99.90;;;;;;5310571;26;20002;-53
2024/04/10 01:13:31;;;;;;;4.10;2.83;;;25.00;99.90;;;;;;5329502;26;20017;-51
2024/04/10 01:15:58;;;;;;;4.28;2.47;;;24.90;99.90;;;;;;5310945;26;20005;-52
2024/04/10 01:18:24;;;;;;;4.18;3.08;;;24.90;99.90;;;;;;5311147;27;20042;-48
2024/04/10 01:20:50;;;;;;;5.28;2.92;;;24.90;99.90;;;;;;5310556;26;20017;-50
2024/04/10 01:23:17;;;;;;;4.28;2.67;;;24.90;99.90;;;;;;5311060;26;20001;-50
2024/04/10 01:25:42;;;;;;;3.77;2.87;;;24.90;99.90;;;;;;5280273;26;20006;-50
2024/04/10 01:28:08;;;;;;;5.45;2.50;;;24.90;99.90;;;;;;5275132;27;20343;-51
2024/04/10 01:30:35;;;;;;;3.88;2.30;;;24.90;99.90;;;;;;5304785;26;20076;-49
2024/04/10 01:33:01;;;;;;;3.15;2.45;;;24.90;99.90;;;;;;5310873;26;20006;-48
2024/04/10 01:35:27;;;;;;;3.85;2.50;;;24.90;99.90;;;;;;5310101;26;20025;-49
2024/04/10 01:37:53;;;;;;;7.28;2.78;;;24.90;99.90;;;;;;5310726;27;20025;-51
2024/04/10 01:40:18;;;;;;;5.00;2.50;;;24.90;99.90;;;;;;5274667;27;20343;-48
2024/04/10 01:42:45;;;;;;;4.97;2.55;;;24.90;99.90;;;;;;5293717;27;20017;-50
2024/04/10 01:45:12;;;;;;;4.03;2.55;;;24.80;99.90;;;;;;5310432;26;20015;-49
2024/04/10 01:47:38;;;;;;;4.60;3.17;;;24.80;99.90;;;;;;5310480;26;20637;-50
2024/04/10 01:50:05;;;;;;;6.63;2.25;;;24.80;99.90;;;;;;5309926;26;20001;-50
2024/04/10 01:52:31;;;;;;;11.73;2.63;;;24.80;99.90;;;;;;5310290;26;20024;-49
2024/04/10 01:54:57;;;;;;;5.10;2.17;;;24.80;99.90;;;;;;5310678;26;20646;-52
2024/04/10 01:57:23;;;;;;;4.63;2.80;;;24.80;99.90;;;;;;5310122;26;20021;-51
2024/04/10 01:59:49;;;;;;;5.10;2.80;;;24.80;99.90;;;;;;5311993;26;20403;-50
2024/04/10 02:02:15;;;;;;;4.43;2.53;;;24.80;99.90;;;;;;5306000;22;20007;-57
2024/04/10 02:04:41;;;;;;;4.75;2.35;;;24.80;99.90;;;;;;5302361;26;20013;-58
2024/04/10 02:07:07;;;;;;;3.40;1.85;;;24.80;99.90;;;;;;5310024;27;20001;-59
2024/04/10 02:09:32;;;;;;;3.85;2.13;;;24.80;99.90;;;;;;5311360;26;20025;-57
2024/04/10 02:11:59;;;;;;;4.80;2.33;;;24.80;99.90;;;;;;5312054;26;20012;-55
2024/04/10 02:14:27;;;;;;;3.97;2.25;;;24.70;99.90;;;;;;5293127;26;20362;-56
2024/04/10 02:16:53;;;;;;;3.67;2.03;;;24.70;99.90;;;;;;5369495;26;20016;-56
2024/04/10 02:19:18;;;;;;;3.72;2.20;;;24.70;99.90;;;;;;5301987;26;20454;-56
2024/04/10 02:21:44;;;;;;;5.90;2.08;;;24.70;99.90;;;;;;5294788;26;20099;-56
2024/04/10 02:24:10;;;;;;;3.42;1.70;;;24.70;99.90;;;;;;5295863;26;19998;-55
2024/04/10 02:26:36;;;;;;;5.18;2.20;;;24.70;99.90;;;;;;5281355;26;20006;-56
2024/04/10 02:29:01;;;;;;;5.38;2.30;;;24.70;99.90;;;;;;5302710;27;20442;-56
2024/04/10 02:31:27;;;;;;;7.47;1.83;;;24.70;99.90;;;;;;5306026;27;19998;-56
2024/04/10 02:33:53;;;;;;;4.25;2.20;;;24.70;99.90;;;;;;5279054;27;19998;-56
2024/04/10 02:36:19;;;;;;;3.47;2.17;;;24.70;99.90;;;;;;5333756;26;20009;-56
2024/04/10 02:38:45;;;;;;;3.47;1.90;;;24.60;99.90;;;;;;5277866;27;20002;-56
2024/04/10 02:41:11;;;;;;;2.58;2.13;;;24.70;99.90;;;;;;5275988;27;20349;-56
2024/04/10 02:43:37;;;;;;;2.42;1.77;;;24.60;99.90;;;;;;5279299;27;20002;-56
2024/04/10 02:46:06;;;;;;;2.20;1.55;;;24.60;99.90;;;;;;5276602;27;19998;-56
2024/04/10 02:48:32;;;;;;;2.80;1.85;;;24.60;99.90;;;;;;5274424;27;19998;-56
2024/04/10 02:50:58;;;;;;;5.82;1.70;;;24.60;99.90;;;;;;5278984;27;20072;-56
2024/04/10 02:53:24;;;;;;;5.75;2.20;;;24.60;99.90;;;;;;5279063;27;19999;-56
2024/04/10 02:55:52;;;;;;;3.97;1.90;;;24.50;99.90;;;;;;5279061;27;20010;-56
2024/04/10 02:58:18;;;;;;;2.90;1.50;;;24.50;99.90;;;;;;5305615;27;20010;-55
2024/04/10 03:00:48;;;;;;;7.57;2.35;;;24.50;99.90;;;;;;5284555;27;19997;-55
2024/04/10 03:03:14;;;;;;;4.10;2.05;;;24.50;99.90;;;;;;5313158;26;19998;-56
2024/04/10 03:05:40;;;;;;;4.78;1.67;;;24.50;99.90;;;;;;5313022;27;20010;-56
2024/04/10 03:08:07;;;;;;;3.25;1.58;;;24.50;99.90;;;;;;5312962;27;20007;-56
2024/04/10 03:10:34;;;;;;;5.03;1.67;;;24.50;99.90;;;;;;5312698;27;20075;-55
2024/04/10 03:13:00;;;;;;;5.45;2.03;;;24.40;99.90;;;;;;5312744;27;19998;-56
2024/04/10 03:15:26;;;;;;;3.45;1.50;;;24.50;99.90;;;;;;5312930;26;19997;-55
2024/04/10 03:17:53;;;;;;;2.47;1.48;;;24.40;99.90;;;;;;5312740;27;20434;-56
2024/04/10 03:20:20;;;;;;;3.28;2.15;;;24.40;99.90;;;;;;5312019;27;20009;-56
2024/04/10 03:22:46;;;;;;;3.05;1.50;;;24.40;99.90;;;;;;5312647;27;19997;-56
2024/04/10 03:25:12;;;;;;;7.28;1.92;;;24.40;99.90;;;;;;5312780;27;20012;-56
2024/04/10 03:27:40;;;;;;;4.85;1.40;;;24.40;99.90;;;;;;5312837;27;20005;-55
2024/04/10 03:30:07;;;;;;;4.82;1.58;;;24.40;99.90;;;;;;5312697;27;20002;-55
2024/04/10 03:32:33;;;;;;;4.13;1.63;;;24.30;99.90;;;;;;5312294;27;20338;-55
2024/04/10 03:34:59;;;;;;;3.08;1.58;;;24.30;99.90;;;;;;5312121;27;20012;-55
2024/04/10 03:37:25;;;;;;;3.97;1.50;;;24.30;99.90;;;;;;5312810;27;20442;-55
2024/04/10 03:39:52;;;;;;;4.67;1.87;;;24.30;99.90;;;;;;5312722;26;20009;-55
2024/04/10 03:42:19;;;;;;;5.25;2.03;;;24.30;99.90;;;;;;5312458;27;20339;-56
2024/04/10 03:44:44;;;;;;;3.65;1.60;;;24.30;99.90;;;;;;5312220;27;20001;-55
2024/04/10 03:47:10;;;;;;;2.60;1.52;;;24.30;99.90;;;;;;5282501;27;19997;-56
2024/04/10 03:49:36;;;;;;;3.47;1.52;;;24.30;99.90;;;;;;5312379;26;20001;-55
2024/04/10 03:52:02;;;;;;;2.90;1.77;;;24.20;99.90;;;;;;5312186;27;20002;-56
2024/04/10 03:54:28;;;;;;;3.38;1.33;;;24.20;99.90;;;;;;5312193;26;20008;-56
2024/04/10 03:56:54;;;;;;;4.60;2.38;;;24.20;99.90;;;;;;5312263;26;20071;-56
2024/04/10 03:59:20;;;;;;;4.18;1.77;;;24.20;99.90;;;;;;5312471;26;20009;-56
2024/04/10 04:01:46;;;;;;;4.85;1.65;;;24.20;99.90;;;;;;5312438;27;20016;-56
2024/04/10 04:04:11;;;;;;;4.03;1.48;;;24.20;99.90;;;;;;5312155;27;19998;-56
2024/04/10 04:06:37;;;;;;;2.85;1.48;;;24.20;99.90;;;;;;5311934;27;20002;-56
2024/04/10 04:09:03;;;;;;;3.83;2.08;;;24.20;99.90;;;;;;5312135;27;20013;-56
2024/04/10 04:11:29;;;;;;;3.83;1.60;;;24.20;99.90;;;;;;5311660;27;20070;-56
2024/04/10 04:13:55;;;;;;;5.95;1.55;;;24.20;99.90;;;;;;5312263;26;20008;-56
2024/04/10 04:16:20;;;;;;;3.30;1.60;;;24.20;99.90;;;;;;5312280;27;20009;-57
2024/04/10 04:18:46;;;;;;;2.53;1.60;;;24.10;99.90;;;;;;5311944;27;20016;-55
2024/04/10 04:21:12;;;;;;;5.07;1.85;;;24.10;99.90;;;;;;5311823;26;20029;-54
2024/04/10 04:23:38;;;;;;;2.20;1.50;;;24.10;99.90;;;;;;5311888;27;19998;-55
2024/04/10 04:26:04;;;;;;;3.65;1.90;;;24.10;99.90;;;;;;5311848;27;20012;-56
2024/04/10 04:28:30;;;;;;;3.30;1.73;;;24.10;99.90;;;;;;5311722;26;20002;-55
2024/04/10 04:30:56;;;;;;;3.33;1.77;;;24.10;99.90;;;;;;5312111;27;20337;-55
2024/04/10 04:33:23;;;;;;;4.22;2.20;;;24.00;99.90;;;;;;5309987;26;20001;-55
2024/04/10 04:35:49;;;;;;;3.70;2.50;;;24.00;99.90;;;;;;5281691;27;20478;-56
2024/04/10 04:38:15;;;;;;;6.00;2.63;;;24.00;99.90;;;;;;5281747;27;20005;-55
2024/04/10 04:40:42;;;;;;;3.83;2.28;;;24.00;99.90;;;;;;5310157;27;19997;-55
2024/04/10 04:43:10;;;;;;;4.18;2.13;;;24.00;99.90;;;;;;5311695;27;20042;-56
2024/04/10 04:45:37;;;;;;;4.22;2.55;;;24.00;99.90;;;;;;5311507;26;20009;-56
2024/04/10 04:48:07;;;;;;;3.42;2.45;;;24.00;99.90;;;;;;5311508;26;20330;-55
2024/04/10 04:50:34;;;;;;;6.13;2.72;;;24.00;99.90;;;;;;5311551;27;20041;-57
2024/04/10 04:53:00;;;;;;;5.18;2.63;;;24.00;99.90;;;;;;5311476;27;20040;-55
2024/04/10 04:55:26;;;;;;;5.57;2.70;;;24.00;99.90;;;;;;5311622;26;20005;-55
2024/04/10 04:57:52;;;;;;;4.95;3.10;;;24.00;99.90;;;;;;5311203;27;20329;-56
2024/04/10 05:00:20;;;;;;;4.30;2.72;;;24.00;99.90;;;;;;5311431;26;20009;-55
2024/04/10 05:02:49;;;;;;;4.65;3.03;;;24.00;99.90;;;;;;5314351;26;20430;-56
2024/04/10 05:05:18;;;;;;;4.50;3.28;;;23.90;99.90;;;;;;5345518;26;20001;-56
2024/04/10 05:07:45;;;;;;;3.42;2.60;;;23.90;99.90;;;;;;5343936;26;19998;-56
2024/04/10 05:10:13;;;;;;;4.18;2.55;;;23.90;99.90;;;;;;5313672;26;20021;-56
2024/04/10 05:12:41;;;;;;;4.38;2.83;;;23.90;99.90;;;;;;5345679;26;20067;-57
2024/04/10 05:15:08;;;;;;;4.90;3.47;;;23.90;99.90;;;;;;5345891;26;20074;-55
2024/04/10 05:17:34;;;;;;;4.47;2.78;;;23.90;99.90;;;;;;5345654;26;20071;-56
2024/04/10 05:20:00;;;;;;;5.55;3.25;;;23.90;99.90;;;;;;5346023;26;20441;-56
2024/04/10 05:22:26;;;;;;;5.18;3.08;;;23.80;99.90;;;;;;5345751;26;20028;-56
2024/04/10 05:24:52;;;;;;;6.57;3.13;;;23.80;99.90;;;;;;5345559;26;19997;-55
2024/04/10 05:27:23;;;;;;;5.07;2.60;;;23.80;99.90;;;;;;5345462;26;20001;-56
2024/04/10 05:30:00;;;;;;;5.20;2.58;;;23.80;99.90;;;;;;5314801;26;20012;-55
2024/04/10 05:32:29;;;;;;;4.03;2.73;;;23.80;99.90;;;;;;5345261;26;19997;-56
2024/04/10 05:34:55;;;;;;;5.18;3.20;;;23.80;99.90;;;;;;5345231;26;20012;-56
2024/04/10 05:37:22;;;;;;;5.13;2.78;;;23.80;99.90;;;;;;5345386;26;20008;-55
2024/04/10 05:39:49;;;;;;;5.28;2.75;;;23.80;99.90;;;;;;5345415;26;20066;-55
2024/04/10 05:42:16;;;;;;;3.70;2.58;;;23.80;99.90;;;;;;5345384;26;20000;-56
2024/04/10 05:44:43;;;;;;;4.90;3.40;;;23.70;99.90;;;;;;5346846;26;20425;-55
2024/04/10 05:47:09;;;;;;;4.63;2.72;;;23.70;99.90;;;;;;5315329;26;20391;-56
2024/04/10 05:49:35;;;;;;;4.47;2.95;;;23.70;99.90;;;;;;5316900;26;20001;-56
2024/04/10 05:52:01;;;;;;;4.35;3.08;;;23.70;99.90;;;;;;5333448;26;20405;-56
2024/04/10 05:54:27;;;;;;;6.00;2.95;;;23.70;99.90;;;;;;5314797;26;20095;-56
2024/04/10 05:56:53;;;;;;;8.02;3.42;;;23.70;99.90;;;;;;5344745;26;19996;-56
2024/04/10 05:59:18;;;;;;;5.93;3.30;;;23.70;99.90;;;;;;5347554;26;20000;-56
2024/04/10 06:01:44;;;;;;;4.35;2.85;;;23.60;99.90;;;;;;5347918;26;19997;-54
2024/04/10 06:04:10;;;;;;;4.25;3.05;;;23.70;99.90;;;;;;5348263;26;20079;-56
2024/04/10 06:06:36;;;;;;;5.68;3.10;;;23.70;99.90;;;;;;5346362;26;20405;-56
2024/04/10 06:09:01;;;;;;;6.47;3.92;;;23.70;99.90;;;;;;5348137;26;20340;-55
2024/04/10 06:11:29;;;;;;;7.03;3.75;;;23.60;99.90;;;;;;5348070;26;20005;-57
2024/04/10 06:13:59;;;;;;;5.03;3.17;;;23.60;99.90;;;;;;5317516;26;20294;-56
2024/04/10 06:16:24;;;;;;;6.82;3.72;;;23.60;99.90;;;;;;5348102;26;20037;-57
2024/04/10 06:18:51;;;;;;;5.50;3.00;;;23.60;99.90;;;;;;5317679;26;20361;-56
2024/04/10 06:21:16;;;;;;;5.15;3.45;;;23.60;99.90;;;;;;5317796;26;19997;-56
2024/04/10 06:23:42;;;;;;;6.00;3.28;;;23.60;99.90;;;;;;5347922;26;20013;-55
2024/04/10 06:26:08;;;;;;;6.65;3.83;;;23.60;99.90;;;;;;5317502;26;20074;-56
2024/04/10 06:28:36;;;;;;;4.53;3.10;;;23.50;99.90;;;;;;5347971;26;20074;-54
2024/04/10 06:31:03;;;;;;;7.35;3.58;;;23.60;99.90;;;;;;5348188;26;19997;-54
2024/04/10 06:33:29;;;;;;;5.38;2.88;;;23.60;99.90;;;;;;5347904;26;20000;-55
2024/04/10 06:36:03;;;;;;;6.03;3.20;;;23.50;99.90;;;;;;5317429;26;20016;-54
2024/04/10 06:38:32;;;;;;;4.22;2.47;;;23.50;99.90;;;;;;5347662;26;19997;-56
2024/04/10 06:41:00;;;;;;;5.43;3.08;;;23.50;99.90;;;;;;5347916;26;20029;-55
2024/04/10 06:43:26;;;;;;;3.83;2.80;;;23.50;99.90;;;;;;5347855;26;20009;-56
2024/04/10 06:45:56;;;;;;;4.37;2.67;;;23.50;99.90;;;;;;5347486;26;19997;-55
2024/04/10 06:48:22;;;;;;;7.60;3.67;;;23.50;99.90;;;;;;5347453;26;19997;-55
2024/04/10 06:50:47;;;;;;;4.30;3.13;;;23.50;99.90;;;;;;5347608;26;19997;-55
2024/04/10 06:53:15;;;;;;;5.28;2.60;;;23.50;99.90;;;;;;5347609;26;19997;-55
2024/04/10 06:55:41;;;;;;;3.78;2.45;;;23.50;99.90;;;;;;5346405;26;20075;-56
2024/04/10 06:58:07;;;;;;;5.03;2.65;;;23.50;99.90;;;;;;5347611;26;20009;-57
2024/04/10 07:00:33;;;;;;;6.95;3.17;;;23.50;99.90;;;;;;5347426;26;20067;-55
2024/04/10 07:02:59;;;;;;;4.18;2.65;;;23.50;99.90;;;;;;5347652;26;20000;-56
2024/04/10 07:05:25;;;;;;;5.63;2.92;;;23.50;99.90;;;;;;5347886;26;19997;-55
2024/04/10 07:07:50;;;;;;;4.75;2.55;;;23.50;99.90;;;;;;5347238;26;20344;-55
2024/04/10 07:10:16;;;;;;;6.70;2.92;;;23.50;99.90;;;;;;5347474;26;20008;-55
2024/04/10 07:12:42;;;;;;;4.45;2.33;;;23.50;99.90;;;;;;5347407;26;19996;-55
2024/04/10 07:15:08;;;;;;;6.90;2.50;;;23.50;99.90;;;;;;5347233;26;20001;-55
2024/04/10 07:17:34;;;;;;;4.95;2.88;;;23.50;99.90;;;;;;5347685;26;20047;-56
2024/04/10 07:20:00;;;;;;;3.75;2.40;;;23.50;99.90;;;;;;5347081;26;20068;-56
2024/04/10 07:22:25;;;;;;;7.13;2.70;;;23.50;99.90;;;;;;5316485;26;20001;-57
2024/04/10 07:24:52;;;;;;;4.40;2.28;;;23.50;99.90;;;;;;5347191;26;20329;-56
2024/04/10 07:27:18;;;;;;;4.00;2.10;;;23.50;99.90;;;;;;5347141;26;19997;-55
2024/04/10 07:29:44;;;;;;;3.00;1.80;;;23.50;99.90;;;;;;5347149;26;20029;-55
2024/04/10 07:32:10;;;;;;;3.45;2.60;;;23.50;99.90;;;;;;5346915;26;19997;-55
2024/04/10 07:34:36;;;;;;;5.80;2.17;;;23.50;99.90;;;;;;5347182;26;20020;-56
2024/04/10 07:37:03;;;;;;;4.93;2.30;;;23.50;99.90;;;;;;5346888;26;20008;-56
2024/04/10 07:39:29;;;;;;;4.07;2.45;;;23.50;99.90;;;;;;5347059;26;20361;-56
2024/04/10 07:41:55;;;;;;;3.75;2.20;;;23.50;99.90;;;;;;5347089;26;20316;-56
2024/04/10 07:44:21;;;;;;;3.70;2.30;;;23.50;99.90;;;;;;5346984;26;19997;-56
2024/04/10 07:46:47;;;;;;;4.78;2.40;;;23.50;99.90;;;;;;5346698;26;20008;-56
2024/04/10 07:49:15;;;;;;;4.72;2.72;;;23.50;99.90;;;;;;5346773;26;20070;-56
2024/04/10 07:51:41;;;;;;;2.75;1.85;;;23.50;99.90;;;;;;5346683;26;20520;-56
2024/04/10 07:54:06;;;;;;;4.82;2.75;;;23.50;99.90;;;;;;5346741;26;20055;-56
2024/04/10 07:56:32;;;;;;;2.38;2.03;;;23.50;99.90;;;;;;5346635;26;20084;-56
2024/04/10 07:58:58;;;;;;;3.80;2.05;;;23.50;99.90;;;;;;5346470;26;19997;-55
2024/04/10 08:01:24;;;;;;;2.90;1.65;;;23.50;99.90;;;;;;5346178;26;20061;-58
2024/04/10 08:03:50;;;;;;;2.58;1.70;;;23.50;99.90;;;;;;5346458;26;19996;-56
2024/04/10 08:06:16;;;;;;;3.83;2.35;;;23.50;99.90;;;;;;5346463;26;19997;-57
2024/04/10 08:08:42;;;;;;;2.15;1.65;;;23.50;99.90;;;;;;5346214;26;20013;-56
2024/04/10 08:11:11;;;;;;;3.08;1.33;;;23.50;99.90;;;;;;5346356;26;20070;-56
2024/04/10 08:13:37;;;;;;;3.17;1.80;;;23.50;99.90;;;;;;5346577;26;20070;-55
2024/04/10 08:16:05;;;;;;;2.80;1.98;;;23.50;99.90;;;;;;5346328;26;20001;-55
2024/04/10 08:18:32;;;;;;;;;;;23.50;99.90;;;;;;5346911;26;20001;-55
2024/04/10 08:21:03;;;;;;;3.03;1.73;;;23.60;99.90;;;;;;5346330;26;19926;-56
2024/04/10 08:23:30;;;;;;;3.90;1.95;;;23.50;99.90;;;;;;5346395;26;20471;-56
2024/04/10 08:25:56;;;;;;;4.90;1.90;;;23.50;99.90;;;;;;5316586;26;19997;-56
2024/04/10 08:28:25;;;;;;;3.55;1.60;;;23.50;99.90;;;;;;5346366;26;20070;-56
2024/04/10 08:30:51;;;;;;;3.95;1.50;;;23.60;99.90;;;;;;5346302;26;19997;-56
2024/04/10 08:33:17;;;;;;;4.18;2.03;;;23.50;99.90;;;;;;5346172;26;20000;-56
2024/04/10 08:35:43;;;;;;;2.13;1.42;;;23.50;99.90;;;;;;5346067;26;20001;-56
2024/04/10 08:38:09;;;;;;;2.92;1.38;;;23.60;99.90;;;;;;5346142;26;19997;-56
2024/04/10 08:40:38;;;;;;;4.50;1.52;;;23.60;99.90;;;;;;5345824;26;20071;-56
2024/04/10 08:43:06;;;;;;;4.43;1.88;;;23.50;99.90;;;;;;5346045;26;20527;-56
2024/04/10 08:45:32;;;;;;;;;;;23.50;99.90;;;;;;5346513;26;19997;-57
2024/04/10 08:48:00;;;;;;;4.75;1.83;;;23.60;99.90;;;;;;5346003;26;19925;-56
2024/04/10 08:50:27;;;;;;;4.90;1.50;;;23.60;99.90;;;;;;5346116;26;20004;-56
2024/04/10 08:52:56;;;;;;;3.05;1.52;;;23.60;99.90;;;;;;5345949;26;20008;-57
2024/04/10 08:55:22;;;;;;;3.38;1.75;;;23.60;99.90;;;;;;5346325;26;20067;-57
2024/04/10 08:57:48;;;;;;;2.90;1.52;;;23.60;99.90;;;;;;5345993;26;20009;-60
2024/04/10 09:00:15;;;;;;;3.70;1.77;;;23.60;99.90;;;;;;5345824;26;20353;-57
2024/04/10 09:02:40;;;;;;;2.03;1.48;;;23.60;99.90;;;;;;5315694;26;20404;-57
2024/04/10 09:05:06;;;;;;;3.58;1.50;;;23.60;99.90;;;;;;5345560;26;20071;-56
2024/04/10 09:07:32;;;;;;;2.42;1.50;;;23.60;99.90;;;;;;5345466;26;19996;-56
2024/04/10 09:10:10;;;;;;;3.20;1.60;;;23.60;99.90;;;;;;5345231;26;20001;-55
2024/04/10 09:12:36;;;;;;;2.92;1.80;;;23.60;99.90;;;;;;5331151;26;20072;-57
2024/04/10 09:15:09;;;;;;;3.60;1.45;;;23.60;99.90;;;;;;5311874;26;20300;-57
2024/04/10 09:17:35;;;;;;;2.05;1.42;;;23.60;99.90;;;;;;5337872;26;20015;-57
2024/04/10 09:20:13;;;;;;;5.60;1.30;;;23.60;99.90;;;;;;5344142;26;20432;-56
2024/04/10 09:22:39;;;;;;;2.22;1.38;;;23.60;99.90;;;;;;5308934;26;20001;-56
2024/04/10 09:25:13;;;;;;;2.20;1.60;;;23.60;99.90;;;;;;5309219;27;20017;-56
2024/04/10 09:27:39;;;;;;;4.10;1.63;;;23.60;99.90;;;;;;5310720;27;20421;-56
2024/04/10 09:30:06;;;;;;;2.17;1.50;;;23.60;99.90;;;;;;5310548;27;20001;-56
2024/04/10 09:32:36;;;;;;;4.43;1.35;;;23.60;99.90;;;;;;5309259;27;20009;-55
2024/04/10 09:35:05;;;;;;;2.28;1.55;;;23.60;99.90;;;;;;5310436;27;20294;-56
2024/04/10 09:37:32;;;;;;;1.55;1.27;;;23.60;99.90;;;;;;5310540;27;20075;-57
2024/04/10 09:39:58;;;;;;;3.47;1.60;;;23.60;99.90;;;;;;5310604;26;20002;-56
2024/04/10 09:42:31;;;;;;;2.35;1.50;;;23.70;99.90;;;;;;5310486;27;20009;-56
2024/04/10 09:45:06;;;;;;;4.35;1.40;;;23.60;99.90;;;;;;5310418;27;20030;-57
2024/04/10 09:47:37;;;;;;;2.72;1.50;;;23.60;99.90;;;;;;5310269;27;19998;-57
2024/04/10 09:50:07;;;;;;;2.95;1.60;;;23.60;99.90;;;;;;5310233;27;20006;-56
2024/04/10 09:52:33;;;;;;;2.05;1.45;;;23.60;99.90;;;;;;5310548;26;20422;-56
2024/04/10 09:55:00;;;;;;;3.13;1.80;;;23.70;99.90;;;;;;5310622;26;19997;-56
2024/04/10 09:57:27;;;;;;;3.25;1.60;;;23.70;99.90;;;;;;5310484;27;20416;-57
2024/04/10 09:59:54;;;;;;;2.55;1.33;;;23.70;99.90;;;;;;5310589;27;20037;-57
2024/04/10 10:02:20;;;;;;;5.57;1.92;;;23.70;99.90;;;;;;5310277;26;19998;-57
2024/04/10 10:04:46;;;;;;;2.67;1.65;;;23.70;99.90;;;;;;5310024;27;19997;-57
2024/04/10 10:07:24;;;;;;;3.78;1.45;;;23.70;99.90;;;;;;5310026;27;20009;-56
2024/04/10 10:09:50;;;;;;;4.38;1.60;;;23.70;99.90;;;;;;5309860;26;20421;-56
2024/04/10 10:12:28;;;;;;;2.00;1.30;;;23.80;99.90;;;;;;5309917;27;20367;-56
2024/04/10 10:14:54;;;;;;;5.05;1.60;;;23.80;99.90;;;;;;5310480;27;20038;-56
2024/04/10 10:17:29;;;;;;;6.30;1.83;;;23.80;99.90;;;;;;5337123;26;20002;-56
2024/04/10 10:19:54;;;;;;;3.75;1.90;;;23.80;99.90;;;;;;5310226;27;20012;-56
2024/04/10 10:22:20;;;;;;;4.38;2.25;;;23.80;99.90;;;;;;5309874;26;19998;-55
2024/04/10 10:24:59;;;;;;;2.65;1.45;;;23.80;99.90;;;;;;5309684;27;20008;-55
2024/04/10 10:27:25;;;;;;;3.58;1.98;;;23.80;99.90;;;;;;5310164;27;20072;-56
2024/04/10 10:30:03;;;;;;;4.07;1.58;;;23.90;99.90;;;;;;5310850;27;20001;-55
2024/04/10 10:32:29;;;;;;;3.10;2.05;;;23.80;99.90;;;;;;5312696;27;20002;-55
2024/04/10 10:35:08;;;;;;;3.58;2.10;;;23.90;99.90;;;;;;5312824;27;20460;-56
2024/04/10 10:37:34;;;;;;;3.25;1.77;;;23.90;99.90;;;;;;5312892;27;20002;-55
2024/04/10 10:40:02;;;;;;;3.50;1.42;;;23.90;99.90;;;;;;5312885;27;20053;-55
2024/04/10 10:42:28;;;;;;;4.35;1.70;;;23.90;99.90;;;;;;5313101;27;20012;-56
2024/04/10 10:45:06;;;;;;;14.00;2.55;;;23.90;99.90;;;;;;5313135;26;20450;-56
2024/04/10 10:47:39;;;;;;;3.53;1.92;;;23.90;99.90;;;;;;5312794;26;20034;-56
2024/04/10 10:50:06;;;;;;;4.90;2.35;;;24.00;99.90;;;;;;5312704;26;20493;-56
2024/04/10 10:52:32;;;;;;;8.55;2.35;;;24.00;99.90;;;;;;5312642;26;20010;-55
2024/04/10 10:55:04;;;;;;;3.33;1.80;;;24.00;99.90;;;;;;5312951;27;19997;-56
2024/04/10 10:57:31;;;;;;;5.13;2.20;;;24.00;99.90;;;;;;5311051;27;20013;-55
2024/04/10 10:59:58;;;;;;;4.70;2.42;;;24.00;99.90;;;;;;5313113;27;20002;-55
2024/04/10 11:02:23;;;;;;;4.80;1.97;;;24.00;99.90;;;;;;5312917;27;20430;-56
2024/04/10 11:04:51;;;;;;;4.10;1.85;;;24.10;99.90;;;;;;5312570;27;20009;-56
2024/04/10 11:07:17;;;;;;;;;;;24.10;99.90;;;;;;5340217;26;20002;-56
2024/04/10 11:09:43;;;;;;;3.45;2.00;;;24.10;99.90;;;;;;5312669;26;20354;-55
2024/04/10 11:12:08;;;;;;;3.65;2.22;;;24.10;99.90;;;;;;5312337;27;20002;-55
2024/04/10 11:14:34;;;;;;;3.38;2.08;;;24.10;99.90;;;;;;5312346;27;19993;-55
2024/04/10 11:17:01;;;;;;;6.63;1.70;;;24.10;99.90;;;;;;5312449;27;20445;-55
2024/04/10 11:19:27;;;;;;;6.82;2.65;;;24.20;99.90;;;;;;5312611;26;19994;-56
2024/04/10 11:21:53;;;;;;;17.10;3.23;;;24.20;99.90;;;;;;5312490;27;20321;-57
2024/04/10 11:24:20;;;;;;;7.10;2.65;;;24.20;99.90;;;;;;5310958;26;19998;-56
2024/04/10 11:26:46;;;;;;;5.25;2.88;;;24.20;99.90;;;;;;5312353;27;20064;-56
2024/04/10 11:29:12;;;;;;;2.45;1.20;;;24.20;99.90;;;;;;5312432;27;20009;-59
2024/04/10 11:31:38;;;;;;;1.63;0.30;;;24.20;99.90;;;;;;5338930;26;20005;-54
2024/04/10 11:34:03;;;;;;;3.88;0.60;;;24.20;99.90;;;;;;5312269;27;19994;-55
2024/04/10 11:36:29;;;;;;;3.53;0.68;;;24.20;99.90;;;;;;5312534;26;20453;-55
2024/04/10 11:38:55;;;;;;;4.28;0.38;;;24.20;99.90;;;;;;5312454;26;19994;-58
2024/04/10 11:41:21;;;;;;;2.88;0.52;;;24.20;99.90;;;;;;5311658;27;19997;-55
2024/04/10 11:43:47;;;;;;;3.55;0.40;;;24.20;99.90;;;;;;5312116;27;19998;-55
2024/04/10 11:46:12;;;;;;;1.67;0.40;;;24.20;99.90;;;;;;5339035;26;20412;-54
2024/04/10 11:48:38;;;;;;;2.67;0.50;;;24.20;99.90;;;;;;5339219;26;20080;-56
2024/04/10 11:51:05;;;;;;;4.35;1.08;;;24.20;99.90;;;;;;5312306;26;20001;-56
2024/04/10 11:53:32;;;;;;;2.83;1.05;;;24.20;99.90;;;;;;5323338;26;20473;-55
2024/04/10 11:55:58;;;;;;;2.92;0.50;;;24.30;99.90;;;;;;5320279;26;20008;-55
2024/04/10 11:58:24;;;;;;;2.50;0.30;;;24.30;99.90;;;;;;5348805;26;20010;-55
2024/04/10 12:00:51;;;;;;;3.05;0.80;;;24.30;99.90;;;;;;5377187;26;19997;-55
2024/04/10 12:03:17;;;;;;;;;;;24.30;99.90;;;;;;5380168;26;19996;-56
2024/04/10 12:05:43;;;;;;;4.63;0.43;;;24.30;99.90;;;;;;5381094;26;19932;-55
2024/04/10 12:08:08;;;;;;;2.47;0.55;;;24.40;99.90;;;;;;5381998;26;20012;-55
2024/04/10 12:10:34;;;;;;;1.33;0.50;;;24.40;99.90;;;;;;5348999;26;20008;-56
2024/04/10 12:13:02;;;;;;;1.38;0.40;;;24.40;99.90;;;;;;5382123;26;19996;-55
2024/04/10 12:15:30;;;;;;;1.90;0.68;;;24.40;99.90;;;;;;5382023;26;19996;-55
2024/04/10 12:17:56;;;;;;;1.65;0.30;;;24.40;99.90;;;;;;5379696;26;20012;-56
2024/04/10 12:20:23;;;;;;;6.40;0.80;;;24.40;99.90;;;;;;5350563;26;20405;-57
2024/04/10 12:22:50;;;;;;;1.27;0.60;;;24.40;99.90;;;;;;5380817;26;20045;-55
2024/04/10 12:25:17;;;;;;;4.50;1.92;;;24.40;99.90;;;;;;5381242;26;20004;-55
2024/04/10 12:27:43;;;;;;;3.08;1.17;;;24.40;99.90;;;;;;5381518;26;20000;-53
2024/04/10 12:30:09;;;;;;;4.22;1.35;;;24.50;99.90;;;;;;5381383;26;20506;-55
2024/04/10 12:32:36;;;;;;;3.40;0.93;;;24.50;99.90;;;;;;5379981;26;20013;-56
2024/04/10 12:38:06;;;;;;;2.38;1.17;;;24.50;99.90;;;;;;5381280;26;20072;-56
2024/04/10 12:40:33;;;;;;;4.18;0.80;;;24.50;99.90;;;;;;5381534;26;20000;-55
2024/04/10 12:42:58;;;;;;;1.88;0.50;;;24.50;99.90;;;;;;5380164;26;20086;-56
2024/04/10 12:45:24;;;;;;;5.97;1.05;;;24.50;99.90;;;;;;5380470;26;20016;-56
2024/04/10 12:47:50;;;;;;;3.20;0.25;;;24.50;99.90;;;;;;5380449;26;20015;-56
2024/04/10 12:50:16;;;;;;;1.48;0.40;;;24.60;99.90;;;;;;5380945;26;20077;-56